Lafayette, Indiana
Current Conditions -  °F | °C
As of 12:54 PM on Thursday 18 Dec 2014 (Local Time) from KLAF Reporting Station
Overcast Overcast  
Wind Chill: 25°   Ceiling: 1900
Heat Index: 25°   Visibility: 10mi
Dew Point: 19°   Wind: 3mph
Humidity: 78%   Direction: 290°WNW
Pressure: 30.27"   Gusts: NA
Location:  40.42°N, 86.88°W
Report Text: KLAF 181754Z 29003KT 10SM OVC019 M04/M07 A3027 RMK AO2 SLP259 T10391072 11033 21044 58016
Loading
Personal Weather Stations






























Interactive Weather Map New forecast layout! Learn more

10-Day Weather Forecast

Advertisements
Track Severe Weather on mobile